createdAt,value
2022-12-20T00:01:13.148Z,60.11
2022-12-20T00:03:41.444Z,59.74
2022-12-20T00:06:11.102Z,60.06
2022-12-20T00:08:39.495Z,60.50
2022-12-20T00:11:08.992Z,60.70
2022-12-20T00:13:37.320Z,60.32
2022-12-20T00:16:07.173Z,60.09
2022-12-20T00:18:37.264Z,59.73
2022-12-20T00:21:07.707Z,59.85
2022-12-20T00:23:36.527Z,60.28
2022-12-20T00:26:06.305Z,60.33
2022-12-20T00:28:34.571Z,59.78
2022-12-20T00:31:02.984Z,59.91
2022-12-20T00:33:31.279Z,59.85
2022-12-20T00:36:00.682Z,59.57
2022-12-20T00:38:28.968Z,59.79
2022-12-20T00:41:04.347Z,59.50
2022-12-20T00:43:33.015Z,59.44
2022-12-20T00:46:01.550Z,60.31
2022-12-20T00:48:31.343Z,60.27
2022-12-20T00:51:01.505Z,60.18
2022-12-20T00:53:30.150Z,59.77
2022-12-20T00:55:58.244Z,59.80
2022-12-20T00:58:26.910Z,59.61
2022-12-20T01:00:56.833Z,59.24
2022-12-20T01:03:25.705Z,59.54
2022-12-20T01:05:54.561Z,59.38
2022-12-20T01:08:26.135Z,58.93
2022-12-20T01:11:00.356Z,58.95
2022-12-20T01:13:28.707Z,59.41
2022-12-20T01:15:57.314Z,59.16
2022-12-20T01:18:25.403Z,59.01
2022-12-20T01:21:02.723Z,58.99
2022-12-20T01:23:32.601Z,59.22
2022-12-20T01:26:01.377Z,59.28
2022-12-20T01:28:30.008Z,58.63
2022-12-20T01:30:58.595Z,58.47
2022-12-20T01:33:26.739Z,58.31
2022-12-20T01:35:59.279Z,57.85
2022-12-20T01:38:28.126Z,57.96
2022-12-20T01:40:58.202Z,58.19
2022-12-20T01:43:28.020Z,57.98
2022-12-20T01:45:56.135Z,58.31
2022-12-20T01:48:27.347Z,57.71
2022-12-20T01:50:55.449Z,58.20
2022-12-20T01:53:25.565Z,57.90
2022-12-20T01:55:54.892Z,57.90
2022-12-20T01:58:25.064Z,57.85
2022-12-20T02:00:53.269Z,57.86
2022-12-20T02:03:21.419Z,57.74
2022-12-20T02:05:49.596Z,57.64
2022-12-20T02:08:20.582Z,57.69
2022-12-20T02:11:02.764Z,57.14
2022-12-20T02:13:39.141Z,57.30
2022-12-20T02:16:07.478Z,57.39
2022-12-20T02:18:40.443Z,57.11
2022-12-20T02:21:35.743Z,56.64
2022-12-20T02:24:37.600Z,56.48
2022-12-20T02:27:35.278Z,56.84
2022-12-20T02:30:14.445Z,56.95
2022-12-20T02:32:49.187Z,56.48
2022-12-20T02:35:23.216Z,56.59
2022-12-20T02:37:53.628Z,56.78
2022-12-20T02:40:25.462Z,56.84
2022-12-20T02:42:59.326Z,56.88
2022-12-20T02:45:34.022Z,56.92
2022-12-20T02:48:05.995Z,56.74
2022-12-20T02:50:39.336Z,56.93
2022-12-20T02:53:08.650Z,57.07
2022-12-20T02:55:44.544Z,57.12
2022-12-20T02:58:19.623Z,56.56
2022-12-20T03:00:52.215Z,56.84
2022-12-20T03:03:26.502Z,57.18
2022-12-20T03:05:56.475Z,56.97
2022-12-20T03:08:25.912Z,57.29
2022-12-20T03:10:55.969Z,56.77
2022-12-20T03:13:24.908Z,56.93
2022-12-20T03:16:00.696Z,57.00
2022-12-20T03:18:29.037Z,57.00
2022-12-20T03:20:57.022Z,57.34
2022-12-20T03:23:25.457Z,57.27
2022-12-20T03:25:53.831Z,57.85
2022-12-20T03:28:30.139Z,57.02
2022-12-20T03:31:00.230Z,57.56
2022-12-20T03:33:28.523Z,57.49
2022-12-20T03:35:59.736Z,57.87
2022-12-20T03:38:27.822Z,58.72
2022-12-20T03:40:55.801Z,58.64
2022-12-20T03:43:24.028Z,58.96
2022-12-20T03:45:52.133Z,59.37
2022-12-20T03:48:22.326Z,59.94
2022-12-20T03:50:50.449Z,60.38
2022-12-20T03:53:18.498Z,60.27
2022-12-20T03:55:46.705Z,61.40
2022-12-20T03:58:16.009Z,62.47
2022-12-20T04:00:44.264Z,62.47
2022-12-20T04:03:38.482Z,62.21
2022-12-20T04:06:07.273Z,62.31
2022-12-20T04:08:35.347Z,62.61
2022-12-20T04:11:18.310Z,62.93
2022-12-20T04:13:53.736Z,63.21
2022-12-20T04:16:25.206Z,62.89
2022-12-20T04:18:56.155Z,63.21
2022-12-20T04:21:26.635Z,63.02
2022-12-20T04:23:57.673Z,64.19
2022-12-20T04:26:30.617Z,63.57
2022-12-20T04:29:00.660Z,63.45
2022-12-20T04:31:29.234Z,63.82
2022-12-20T04:33:59.260Z,64.39
2022-12-20T04:36:27.788Z,63.97
2022-12-20T04:38:57.350Z,63.98
2022-12-20T04:41:27.058Z,63.98
2022-12-20T04:44:00.278Z,63.82
2022-12-20T04:46:37.314Z,63.95
2022-12-20T04:49:09.312Z,63.60
2022-12-20T04:51:40.550Z,64.67
2022-12-20T04:54:07.644Z,63.93
2022-12-20T04:56:44.218Z,64.37
2022-12-20T04:59:16.981Z,64.65
2022-12-20T05:01:47.474Z,64.30
2022-12-20T05:04:24.853Z,65.01
2022-12-20T05:06:52.996Z,64.47
2022-12-20T05:09:21.176Z,64.35
2022-12-20T05:11:50.216Z,64.45
2022-12-20T05:14:18.419Z,64.90
2022-12-20T05:16:46.483Z,64.85
2022-12-20T05:19:14.515Z,65.05
2022-12-20T05:22:02.141Z,65.41
2022-12-20T05:24:48.700Z,64.43
2022-12-20T05:27:25.994Z,64.30
2022-12-20T05:29:54.517Z,64.21
2022-12-20T05:32:22.656Z,64.03
2022-12-20T05:34:51.505Z,64.53
2022-12-20T05:37:22.371Z,65.11
2022-12-20T05:39:50.919Z,64.61
2022-12-20T05:42:22.890Z,64.67
2022-12-20T05:44:53.370Z,64.36
2022-12-20T05:47:23.154Z,64.34
2022-12-20T05:49:59.411Z,64.64
2022-12-20T05:52:31.057Z,64.30
2022-12-20T05:54:59.255Z,63.68
2022-12-20T05:57:28.617Z,64.06
2022-12-20T05:59:57.575Z,63.74
2022-12-20T06:02:26.720Z,64.10
2022-12-20T06:05:02.909Z,64.56
2022-12-20T06:07:32.942Z,64.24
2022-12-20T06:10:01.658Z,63.69
2022-12-20T06:12:43.777Z,64.27
2022-12-20T06:15:13.403Z,64.08
2022-12-20T06:17:43.170Z,63.85
2022-12-20T06:20:13.196Z,63.65
2022-12-20T06:22:45.832Z,64.32
2022-12-20T06:25:16.171Z,64.06
2022-12-20T06:27:44.504Z,64.04
2022-12-20T06:30:15.761Z,64.72
2022-12-20T06:32:59.278Z,64.72
2022-12-20T06:35:27.556Z,64.56
2022-12-20T06:37:58.731Z,63.90
2022-12-20T06:40:28.015Z,63.88
2022-12-20T06:42:58.931Z,64.43
2022-12-20T06:45:27.101Z,64.65
2022-12-20T06:47:55.948Z,63.99
2022-12-20T06:50:24.861Z,64.07
2022-12-20T06:52:53.106Z,64.13
2022-12-20T06:55:22.700Z,63.65
2022-12-20T06:57:51.982Z,63.84
2022-12-20T07:00:22.904Z,63.51
2022-12-20T07:02:51.440Z,63.40
2022-12-20T07:05:19.960Z,63.92
2022-12-20T07:07:48.623Z,63.45
2022-12-20T07:10:17.337Z,62.91
2022-12-20T07:15:36.068Z,63.16
2022-12-20T07:18:06.999Z,64.04
2022-12-20T07:20:36.020Z,63.71
2022-12-20T07:23:04.633Z,63.37
2022-12-20T07:25:33.021Z,63.30
2022-12-20T07:28:03.621Z,63.21
2022-12-20T07:30:32.380Z,62.78
2022-12-20T07:33:00.861Z,62.88
2022-12-20T07:35:29.913Z,63.81
2022-12-20T07:37:59.463Z,64.61
2022-12-20T07:40:28.568Z,65.08
2022-12-20T07:42:57.864Z,65.51
2022-12-20T07:45:28.243Z,65.71
2022-12-20T07:47:59.001Z,66.07
2022-12-20T07:50:34.129Z,66.06
2022-12-20T07:53:05.667Z,66.51
2022-12-20T07:55:34.723Z,66.29
2022-12-20T07:58:08.145Z,66.58
2022-12-20T08:00:39.603Z,67.14
2022-12-20T08:03:13.226Z,66.10
2022-12-20T08:05:45.638Z,67.04
2022-12-20T08:08:15.449Z,67.06
2022-12-20T08:10:44.970Z,67.26
2022-12-20T08:13:14.288Z,66.82
2022-12-20T08:15:45.384Z,66.78
2022-12-20T08:18:14.369Z,66.80
2022-12-20T08:20:43.574Z,67.02
2022-12-20T08:23:12.351Z,66.61
2022-12-20T08:25:42.254Z,67.04
2022-12-20T08:28:11.168Z,67.49
2022-12-20T08:30:40.909Z,67.58
2022-12-20T08:33:11.394Z,67.70
2022-12-20T08:35:40.362Z,67.44
2022-12-20T08:38:09.130Z,67.74
2022-12-20T08:40:37.947Z,67.07
2022-12-20T08:43:10.367Z,67.44
2022-12-20T08:45:39.299Z,67.25
2022-12-20T08:48:08.512Z,67.88
2022-12-20T08:50:38.733Z,67.40
2022-12-20T08:53:07.399Z,66.90
2022-12-20T08:55:36.520Z,67.01
2022-12-20T08:58:05.141Z,66.72
2022-12-20T09:00:34.005Z,66.45
2022-12-20T09:03:02.585Z,67.05
2022-12-20T09:05:31.052Z,66.96
2022-12-20T09:08:00.840Z,66.45
2022-12-20T09:10:29.247Z,66.41
2022-12-20T09:12:57.531Z,65.94
2022-12-20T09:15:27.895Z,66.17
2022-12-20T09:17:56.800Z,65.87
2022-12-20T09:20:25.749Z,65.58
2022-12-20T09:22:54.292Z,64.90
2022-12-20T09:25:24.168Z,64.92
2022-12-20T09:27:52.630Z,64.76
2022-12-20T09:30:21.302Z,65.04
2022-12-20T09:32:49.738Z,64.73
2022-12-20T09:35:23.037Z,63.81
2022-12-20T09:37:51.942Z,63.99
2022-12-20T09:40:25.333Z,63.51
2022-12-20T09:42:54.009Z,63.82
2022-12-20T09:45:27.456Z,63.78
2022-12-20T09:47:56.018Z,63.12
2022-12-20T09:50:48.177Z,62.42
2022-12-20T09:53:29.437Z,62.13
2022-12-20T09:56:04.995Z,62.02
2022-12-20T09:58:43.378Z,61.45
2022-12-20T10:01:24.399Z,60.73
2022-12-20T10:03:54.415Z,60.71
2022-12-20T10:06:35.019Z,60.59
2022-12-20T10:09:05.879Z,60.86
2022-12-20T10:11:57.565Z,60.17
2022-12-20T10:14:39.217Z,60.00
2022-12-20T10:17:15.229Z,59.95
2022-12-20T10:20:08.611Z,60.09
2022-12-20T10:22:44.725Z,60.08
2022-12-20T10:25:18.672Z,59.90
2022-12-20T10:27:50.226Z,59.37
2022-12-20T10:30:24.734Z,59.35
2022-12-20T10:32:55.063Z,59.30
2022-12-20T10:35:26.875Z,59.35
2022-12-20T10:38:09.526Z,59.10
2022-12-20T10:43:41.299Z,59.09
2022-12-20T10:46:11.581Z,59.22
2022-12-20T10:48:41.779Z,58.87
2022-12-20T10:51:17.219Z,59.18
2022-12-20T10:53:57.587Z,59.62
2022-12-20T10:56:29.171Z,59.57
2022-12-20T10:59:01.247Z,60.41
2022-12-20T11:01:32.657Z,60.72
2022-12-20T11:04:03.912Z,61.47
2022-12-20T11:06:43.803Z,62.24
2022-12-20T11:09:26.400Z,62.83
2022-12-20T11:12:03.605Z,63.05
2022-12-20T11:14:39.118Z,62.76
2022-12-20T11:17:23.270Z,62.78
2022-12-20T11:20:13.725Z,63.09
2022-12-20T11:22:51.586Z,63.66
2022-12-20T11:25:39.905Z,63.34
2022-12-20T11:28:34.680Z,63.73
2022-12-20T11:31:14.682Z,64.20
2022-12-20T11:34:04.609Z,64.92
2022-12-20T11:36:43.145Z,64.62
2022-12-20T11:39:19.596Z,65.23
2022-12-20T11:41:57.059Z,65.18
2022-12-20T11:44:33.846Z,64.64
2022-12-20T11:47:21.857Z,64.43
2022-12-20T11:50:04.767Z,64.46
2022-12-20T11:52:40.099Z,64.27
2022-12-20T11:55:21.419Z,64.67
2022-12-20T12:00:53.841Z,65.53
2022-12-20T12:03:31.623Z,64.75
2022-12-20T12:06:04.730Z,64.92
2022-12-20T12:08:41.553Z,65.51
2022-12-20T12:11:55.610Z,65.41
2022-12-20T12:14:07.554Z,65.44
2022-12-20T12:16:39.150Z,65.53
2022-12-20T12:19:12.837Z,65.11
2022-12-20T12:21:45.660Z,65.87
2022-12-20T12:24:23.116Z,65.79
2022-12-20T12:26:51.833Z,66.11
2022-12-20T12:29:22.177Z,65.56
2022-12-20T12:31:56.326Z,65.29
2022-12-20T12:34:47.963Z,65.53
2022-12-20T12:37:49.986Z,66.31
2022-12-20T12:40:52.912Z,66.56
2022-12-20T12:43:45.667Z,66.19
2022-12-20T12:46:16.732Z,65.71
2022-12-20T12:48:50.139Z,65.63
2022-12-20T12:51:27.845Z,66.11
2022-12-20T12:54:04.913Z,65.82
2022-12-20T12:56:44.370Z,65.59
2022-12-20T12:59:43.947Z,65.91
2022-12-20T13:02:28.610Z,66.27
2022-12-20T13:05:00.740Z,66.59
2022-12-20T13:07:43.992Z,66.49
2022-12-20T13:10:45.877Z,66.06
2022-12-20T13:13:21.914Z,66.57
2022-12-20T13:16:48.771Z,67.14
2022-12-20T13:19:20.494Z,66.37
2022-12-20T13:21:54.640Z,66.59
2022-12-20T13:24:57.120Z,67.17
2022-12-20T13:27:30.646Z,67.54
2022-12-20T13:30:03.809Z,67.63
2022-12-20T13:33:13.733Z,68.65
2022-12-20T13:35:56.919Z,68.98
2022-12-20T13:39:01.838Z,68.55
2022-12-20T13:41:39.190Z,67.58
2022-12-20T13:44:41.038Z,68.13
2022-12-20T13:47:24.396Z,67.23
2022-12-20T13:49:52.997Z,67.65
2022-12-20T13:52:28.698Z,67.84
2022-12-20T13:55:00.739Z,67.43
2022-12-20T13:57:32.705Z,68.00
2022-12-20T14:00:07.611Z,68.04
2022-12-20T14:02:41.846Z,68.10
2022-12-20T14:05:18.647Z,67.82
2022-12-20T14:07:49.234Z,67.55
2022-12-20T14:10:22.135Z,67.33
2022-12-20T14:12:54.652Z,67.04
2022-12-20T14:15:27.859Z,66.88
2022-12-20T14:17:56.351Z,67.30
2022-12-20T14:20:30.418Z,67.12
2022-12-20T14:23:05.966Z,67.11
2022-12-20T14:25:40.076Z,67.22
2022-12-20T14:28:24.965Z,66.99
2022-12-20T14:30:58.176Z,67.37
2022-12-20T14:33:33.213Z,67.79
2022-12-20T14:36:12.586Z,67.58
2022-12-20T14:38:42.845Z,67.37
2022-12-20T14:41:32.021Z,66.96
2022-12-20T14:44:05.665Z,66.78
2022-12-20T14:46:36.852Z,67.20
2022-12-20T14:49:12.779Z,67.20
2022-12-20T14:51:41.329Z,67.30
2022-12-20T14:54:39.772Z,67.06
2022-12-20T14:57:13.329Z,66.77
2022-12-20T14:59:41.824Z,67.05
2022-12-20T15:02:38.194Z,67.23
2022-12-20T15:05:25.856Z,67.18
2022-12-20T15:07:54.342Z,67.16
2022-12-20T15:10:23.702Z,66.97
2022-12-20T15:12:52.112Z,66.87
2022-12-20T15:15:34.623Z,66.93
2022-12-20T15:18:09.926Z,67.38
2022-12-20T15:20:38.354Z,67.17
2022-12-20T15:23:06.704Z,67.18
2022-12-20T15:25:42.924Z,66.52
2022-12-20T15:28:17.186Z,66.68
2022-12-20T15:30:46.450Z,67.52
2022-12-20T15:33:22.531Z,67.27
2022-12-20T15:35:51.503Z,67.23
2022-12-20T15:38:29.681Z,67.10
2022-12-20T15:41:15.841Z,67.59
2022-12-20T15:43:44.292Z,67.70
2022-12-20T15:46:13.088Z,68.13
2022-12-20T15:48:42.755Z,67.55
2022-12-20T15:51:17.700Z,67.18
2022-12-20T15:53:46.169Z,67.78
2022-12-20T15:56:19.509Z,67.38
2022-12-20T15:58:48.585Z,68.01
2022-12-20T16:01:19.754Z,67.96
2022-12-20T16:03:49.674Z,67.94
2022-12-20T16:06:18.145Z,67.68
2022-12-20T16:08:46.419Z,67.82
2022-12-20T16:11:22.521Z,67.66
2022-12-20T16:13:51.610Z,67.84
2022-12-20T16:16:21.438Z,67.82
2022-12-20T16:18:51.784Z,67.25
2022-12-20T16:21:22.519Z,67.42
2022-12-20T16:23:51.983Z,67.69
2022-12-20T16:26:21.619Z,67.55
2022-12-20T16:28:51.267Z,67.57
2022-12-20T16:31:24.783Z,67.01
2022-12-20T16:33:55.067Z,67.36
2022-12-20T16:36:23.707Z,67.74
2022-12-20T16:38:52.804Z,67.40
2022-12-20T16:41:22.596Z,67.67
2022-12-20T16:43:50.984Z,67.68
2022-12-20T16:46:21.212Z,68.47
2022-12-20T16:48:50.261Z,68.41
2022-12-20T16:51:28.075Z,67.88
2022-12-20T16:56:47.420Z,68.39
2022-12-20T16:59:19.885Z,68.34
2022-12-20T17:01:50.091Z,68.52
2022-12-20T17:04:20.197Z,67.92
2022-12-20T17:06:50.390Z,68.48
2022-12-20T17:12:10.920Z,68.36
2022-12-20T17:14:39.275Z,68.40
2022-12-20T17:17:07.799Z,68.34
2022-12-20T17:19:36.711Z,68.68
2022-12-20T17:22:25.666Z,68.20
2022-12-20T17:24:54.206Z,68.65
2022-12-20T17:27:22.522Z,68.47
2022-12-20T17:29:52.306Z,68.17
2022-12-20T17:32:22.751Z,67.97
2022-12-20T17:34:51.142Z,67.93
2022-12-20T17:37:21.189Z,68.75
2022-12-20T17:39:49.929Z,68.48
2022-12-20T17:42:18.517Z,68.82
2022-12-20T17:44:47.303Z,68.61
2022-12-20T17:47:17.377Z,68.53
2022-12-20T17:49:45.774Z,68.82
2022-12-20T17:52:15.777Z,68.17
2022-12-20T17:54:45.573Z,68.07
2022-12-20T17:57:15.722Z,67.91
2022-12-20T17:59:44.396Z,68.28
2022-12-20T18:02:22.944Z,67.88
2022-12-20T18:04:51.726Z,68.41
2022-12-20T18:07:20.641Z,68.13
2022-12-20T18:09:52.072Z,67.86
2022-12-20T18:12:20.612Z,68.27
2022-12-20T18:14:50.768Z,68.01
2022-12-20T18:17:19.570Z,67.87
2022-12-20T18:19:47.870Z,67.95
2022-12-20T18:22:16.255Z,68.26
2022-12-20T18:24:44.601Z,68.27
2022-12-20T18:27:15.051Z,68.55
2022-12-20T18:29:43.411Z,68.58
2022-12-20T18:32:12.718Z,68.95
2022-12-20T18:34:41.158Z,68.52
2022-12-20T18:37:09.497Z,68.49
2022-12-20T18:39:38.059Z,68.74
2022-12-20T18:42:06.545Z,68.52
2022-12-20T18:44:36.620Z,68.19
2022-12-20T18:47:05.071Z,68.41
2022-12-20T18:49:33.456Z,68.57
2022-12-20T18:52:01.963Z,68.33
2022-12-20T18:54:31.180Z,68.19
2022-12-20T18:56:59.580Z,68.41
2022-12-20T18:59:27.933Z,68.07
2022-12-20T19:01:58.045Z,69.10
2022-12-20T19:04:26.511Z,69.63
2022-12-20T19:06:54.901Z,69.05
2022-12-20T19:09:23.281Z,69.42
2022-12-20T19:11:56.552Z,69.04
2022-12-20T19:14:26.320Z,68.75
2022-12-20T19:16:54.889Z,68.37
2022-12-20T19:19:24.653Z,68.23
2022-12-20T19:21:53.041Z,68.61
2022-12-20T19:24:21.439Z,68.70
2022-12-20T19:26:49.778Z,68.16
2022-12-20T19:29:18.101Z,67.94
2022-12-20T19:31:47.820Z,67.93
2022-12-20T19:34:16.376Z,68.71
2022-12-20T19:36:48.452Z,68.33
2022-12-20T19:39:20.094Z,68.31
2022-12-20T19:42:14.020Z,68.29
2022-12-20T19:44:37.107Z,68.30
2022-12-20T19:47:05.687Z,68.24
2022-12-20T19:49:35.508Z,68.14
2022-12-20T19:52:05.807Z,67.95
2022-12-20T19:54:34.116Z,67.94
2022-12-20T19:57:02.459Z,67.71
2022-12-20T19:59:31.466Z,67.78
2022-12-20T20:01:59.850Z,67.69
2022-12-20T20:04:28.338Z,67.82
2022-12-20T20:06:57.524Z,67.93
2022-12-20T20:09:27.380Z,67.39
2022-12-20T20:11:55.687Z,67.62
2022-12-20T20:14:24.010Z,67.62
2022-12-20T20:16:52.969Z,67.28
2022-12-20T20:19:21.653Z,67.24
2022-12-20T20:21:50.445Z,67.68
2022-12-20T20:24:18.913Z,67.64
2022-12-20T20:26:48.814Z,67.59
2022-12-20T20:29:17.134Z,67.36
2022-12-20T20:31:45.489Z,67.58
2022-12-20T20:34:13.865Z,67.71
2022-12-20T20:36:42.173Z,67.42
2022-12-20T20:39:10.490Z,67.51
2022-12-20T20:41:38.714Z,67.41
2022-12-20T20:44:08.346Z,67.51
2022-12-20T20:46:36.758Z,67.52
2022-12-20T20:49:06.466Z,67.64
2022-12-20T20:51:34.877Z,67.49
2022-12-20T20:54:03.150Z,67.46
2022-12-20T20:56:31.523Z,67.86
2022-12-20T20:59:05.242Z,67.36
2022-12-20T21:01:38.039Z,67.09
2022-12-20T21:04:07.190Z,67.14
2022-12-20T21:06:41.197Z,67.11
2022-12-20T21:09:10.240Z,66.94
2022-12-20T21:11:38.629Z,66.92
2022-12-20T21:14:07.082Z,66.82
2022-12-20T21:16:36.778Z,66.76
2022-12-20T21:19:06.751Z,66.80
2022-12-20T21:21:35.120Z,66.72
2022-12-20T21:24:03.521Z,66.59
2022-12-20T21:26:31.980Z,66.30
2022-12-20T21:29:01.131Z,66.46
2022-12-20T21:31:30.747Z,66.49
2022-12-20T21:33:59.317Z,66.69
2022-12-20T21:36:28.982Z,66.42
2022-12-20T21:38:59.977Z,66.34
2022-12-20T21:41:30.573Z,66.24
2022-12-20T21:44:00.434Z,66.31
2022-12-20T21:46:31.662Z,66.09
2022-12-20T21:49:00.351Z,66.43
2022-12-20T21:51:31.403Z,66.26
2022-12-20T21:54:01.428Z,66.17
2022-12-20T21:56:31.287Z,66.09
2022-12-20T21:58:59.954Z,66.19
2022-12-20T22:01:30.198Z,66.08
2022-12-20T22:04:00.857Z,66.00
2022-12-20T22:06:31.612Z,65.91
2022-12-20T22:09:00.061Z,66.07
2022-12-20T22:11:28.900Z,65.88
2022-12-20T22:13:57.552Z,65.81
2022-12-20T22:16:29.218Z,65.79
2022-12-20T22:18:59.196Z,65.88
2022-12-20T22:21:29.455Z,65.88
2022-12-20T22:24:00.949Z,65.56
2022-12-20T22:26:30.659Z,65.54
2022-12-20T22:29:01.163Z,65.46
2022-12-20T22:31:30.505Z,65.48
2022-12-20T22:34:00.060Z,65.49
2022-12-20T22:36:28.958Z,65.43
2022-12-20T22:38:59.021Z,65.40
2022-12-20T22:41:29.831Z,65.24
2022-12-20T22:43:59.744Z,65.17
2022-12-20T22:46:29.695Z,65.46
2022-12-20T22:48:58.743Z,65.49
2022-12-20T22:51:29.487Z,65.53
2022-12-20T22:54:00.636Z,65.48
2022-12-20T22:56:29.185Z,65.59
2022-12-20T22:58:57.453Z,65.24
2022-12-20T23:01:26.115Z,65.36
2022-12-20T23:03:54.506Z,65.37
2022-12-20T23:06:23.049Z,65.30
2022-12-20T23:08:51.371Z,65.40
2022-12-20T23:11:41.288Z,65.18
2022-12-20T23:14:30.346Z,65.25
2022-12-20T23:16:58.795Z,65.43
2022-12-20T23:19:27.240Z,65.37
2022-12-20T23:22:13.080Z,65.30
2022-12-20T23:24:41.353Z,65.26
2022-12-20T23:27:11.562Z,65.27
2022-12-20T23:29:41.044Z,65.27
2022-12-20T23:32:11.066Z,65.27
2022-12-20T23:34:40.121Z,65.23
2022-12-20T23:37:09.342Z,65.17
2022-12-20T23:39:38.008Z,65.20
2022-12-20T23:42:07.163Z,65.22
2022-12-20T23:44:36.994Z,65.12
2022-12-20T23:47:05.926Z,65.04
2022-12-20T23:49:34.645Z,64.98
2022-12-20T23:52:03.075Z,64.98
2022-12-20T23:54:31.490Z,65.09
2022-12-20T23:56:59.881Z,65.05
2022-12-20T23:59:28.367Z,65.00
